Time;durP1;ratioP1;P1;durP2;ratioP2;P2;SDS_P1;SDS_P2;PMS_P1;PMS_P2;Temp;Humidity;BMP_temperature;BMP_pressure;BME280_temperature;BME280_humidity;BME280_pressure;Samples;Min_cycle;Max_cycle;Signal;HPM_P1;HPM_P2
2022/07/10 00:01:05;;;;;;;2.67;1.87;;;;;;;;;;5059519;27;87630;-44
2022/07/10 00:03:34;;;;;;;5.13;2.57;;;;;;;;;;5055093;27;89221;-44
2022/07/10 00:06:02;;;;;;;3.57;2.27;;;;;;;;;;5060947;27;88803;-45
2022/07/10 00:08:30;;;;;;;2.03;1.47;;;;;;;;;;5060551;27;87490;-44
2022/07/10 00:10:59;;;;;;;3.60;1.90;;;;;;;;;;5060734;27;87166;-44
2022/07/10 00:13:28;;;;;;;3.60;2.00;;;;;;;;;;5060716;27;89075;-44
2022/07/10 00:15:57;;;;;;;3.80;2.37;;;;;;;;;;5061096;27;88897;-44
2022/07/10 00:18:25;;;;;;;2.53;2.17;;;;;;;;;;5062388;27;87012;-44
2022/07/10 00:20:53;;;;;;;3.17;2.10;;;;;;;;;;5062040;27;87069;-44
2022/07/10 00:23:22;;;;;;;4.17;2.27;;;;;;;;;;5073821;27;88093;-44
2022/07/10 00:25:50;;;;;;;3.23;1.83;;;;;;;;;;5060751;27;88942;-44
2022/07/10 00:28:19;;;;;;;3.43;2.00;;;;;;;;;;5060706;27;87003;-44
2022/07/10 00:30:48;;;;;;;4.10;1.63;;;;;;;;;;5059888;27;88223;-44
2022/07/10 00:33:17;;;;;;;2.17;1.33;;;;;;;;;;5060938;27;87092;-44
2022/07/10 00:35:45;;;;;;;2.40;1.40;;;;;;;;;;5060879;27;88900;-44
2022/07/10 00:38:14;;;;;;;3.77;1.53;;;;;;;;;;5041822;27;88640;-44
2022/07/10 00:40:42;;;;;;;3.83;1.73;;;;;;;;;;5054140;27;87012;-44
2022/07/10 00:43:11;;;;;;;3.43;1.70;;;;;;;;;;5060520;27;88277;-44
2022/07/10 00:45:39;;;;;;;1.50;1.20;;;;;;;;;;5060090;27;87919;-44
2022/07/10 00:48:10;;;;;;;3.33;1.27;;;;;;;;;;5060441;27;87242;-44
2022/07/10 00:50:38;;;;;;;2.20;1.27;;;;;;;;;;5054484;27;87156;-44
2022/07/10 00:53:07;;;;;;;1.50;1.20;;;;;;;;;;5053303;27;88359;-44
2022/07/10 00:55:36;;;;;;;1.30;1.07;;;;;;;;;;5054765;27;88850;-44
2022/07/10 00:58:04;;;;;;;2.03;1.23;;;;;;;;;;5056600;27;87128;-44
2022/07/10 01:00:32;;;;;;;3.47;1.07;;;;;;;;;;5056394;27;87165;-44
2022/07/10 01:03:01;;;;;;;1.80;1.20;;;;;;;;;;5060694;27;89125;-44
2022/07/10 01:05:30;;;;;;;1.00;0.90;;;;;;;;;;5059924;27;88767;-44
2022/07/10 01:07:58;;;;;;;2.27;1.00;;;;;;;;;;5059746;27;87109;-44
2022/07/10 01:10:27;;;;;;;1.47;0.90;;;;;;;;;;5066951;27;87090;-44
2022/07/10 01:12:55;;;;;;;1.10;1.00;;;;;;;;;;5066116;27;89177;-44
2022/07/10 01:15:23;;;;;;;1.30;1.17;;;;;;;;;;5039419;27;88882;-44
2022/07/10 01:17:53;;;;;;;1.13;1.03;;;;;;;;;;5071845;27;87301;-44
2022/07/10 01:20:21;;;;;;;3.30;1.07;;;;;;;;;;5061425;27;86314;-44
2022/07/10 01:22:51;;;;;;;1.63;1.00;;;;;;;;;;5064757;27;89078;-44
2022/07/10 01:25:19;;;;;;;1.10;0.80;;;;;;;;;;5063618;27;87837;-44
2022/07/10 01:27:47;;;;;;;2.13;0.93;;;;;;;;;;5062546;27;87925;-44
2022/07/10 01:30:16;;;;;;;1.63;1.00;;;;;;;;;;5059736;27;87136;-44
2022/07/10 01:32:44;;;;;;;2.30;1.47;;;;;;;;;;5057196;27;88087;-44
2022/07/10 01:35:12;;;;;;;0.90;0.70;;;;;;;;;;5061600;27;87844;-44
2022/07/10 01:37:41;;;;;;;1.73;0.93;;;;;;;;;;5069008;27;88299;-44
2022/07/10 01:40:10;;;;;;;3.43;1.20;;;;;;;;;;5075094;27;87105;-44
2022/07/10 01:42:39;;;;;;;0.70;0.70;;;;;;;;;;5061456;27;88233;-44
2022/07/10 01:45:08;;;;;;;1.13;0.70;;;;;;;;;;5062891;27;87952;-44
2022/07/10 01:47:36;;;;;;;1.23;0.70;;;;;;;;;;5060501;27;87059;-43
2022/07/10 01:50:05;;;;;;;1.80;0.97;;;;;;;;;;5076654;27;87455;-44
2022/07/10 01:52:33;;;;;;;2.10;0.90;;;;;;;;;;5057936;27;88744;-44
2022/07/10 01:55:01;;;;;;;1.23;1.00;;;;;;;;;;5067566;27;88855;-44
2022/07/10 01:57:31;;;;;;;1.07;0.83;;;;;;;;;;5080501;27;87073;-44
2022/07/10 01:59:59;;;;;;;1.60;1.10;;;;;;;;;;5053378;27;87028;-44
2022/07/10 02:02:27;;;;;;;2.50;1.33;;;;;;;;;;5060420;27;88406;-44
2022/07/10 02:04:55;;;;;;;2.67;1.50;;;;;;;;;;5063185;27;87811;-44
2022/07/10 02:07:25;;;;;;;3.17;2.03;;;;;;;;;;5063631;27;87023;-44
2022/07/10 02:09:54;;;;;;;3.77;1.90;;;;;;;;;;5065712;27;86314;-45
2022/07/10 02:12:22;;;;;;;3.30;1.67;;;;;;;;;;5067083;27;89132;-45
2022/07/10 02:14:52;;;;;;;3.47;2.33;;;;;;;;;;5063570;27;87757;-45
2022/07/10 02:17:20;;;;;;;4.10;2.50;;;;;;;;;;5064408;27;89836;-45
2022/07/10 02:19:48;;;;;;;4.73;2.87;;;;;;;;;;5072793;27;87100;-45
2022/07/10 02:22:17;;;;;;;4.37;2.53;;;;;;;;;;5075978;27;86980;-45
2022/07/10 02:24:45;;;;;;;2.37;1.97;;;;;;;;;;5063727;27;88885;-45
2022/07/10 02:27:14;;;;;;;6.17;2.87;;;;;;;;;;5062445;27;87108;-44
2022/07/10 02:29:42;;;;;;;4.23;3.00;;;;;;;;;;5061546;27;87583;-45
2022/07/10 02:32:12;;;;;;;2.43;2.00;;;;;;;;;;5058554;27;89154;-45
2022/07/10 02:34:40;;;;;;;4.77;2.73;;;;;;;;;;5062295;27;89588;-45
2022/07/10 02:37:08;;;;;;;4.33;2.80;;;;;;;;;;5055305;27;89085;-45
2022/07/10 02:39:36;;;;;;;4.37;2.67;;;;;;;;;;5055161;27;87276;-45
2022/07/10 02:42:05;;;;;;;4.43;2.77;;;;;;;;;;5063089;27;89226;-45
2022/07/10 02:44:33;;;;;;;3.13;2.63;;;;;;;;;;5054931;27;89943;-44
2022/07/10 02:47:02;;;;;;;3.77;3.00;;;;;;;;;;5063133;27;89246;-45
2022/07/10 02:49:33;;;;;;;3.77;2.97;;;;;;;;;;5061640;27;87367;-44
2022/07/10 02:52:01;;;;;;;5.87;2.67;;;;;;;;;;5068610;27;88275;-45
2022/07/10 02:54:29;;;;;;;5.87;2.60;;;;;;;;;;5061722;27;88968;-45
2022/07/10 02:56:58;;;;;;;5.50;3.20;;;;;;;;;;5066760;27;87017;-45
2022/07/10 02:59:26;;;;;;;6.60;2.83;;;;;;;;;;5061053;27;86306;-44
2022/07/10 03:01:54;;;;;;;11.33;4.07;;;;;;;;;;5054955;27;89725;-45
2022/07/10 03:04:23;;;;;;;7.53;3.17;;;;;;;;;;5056503;27;87783;-45
2022/07/10 03:06:53;;;;;;;5.53;3.53;;;;;;;;;;5061353;27;88095;-45
2022/07/10 03:09:21;;;;;;;6.93;3.30;;;;;;;;;;5062058;27;87060;-45
2022/07/10 03:11:49;;;;;;;4.77;3.17;;;;;;;;;;5062800;27;88107;-45
2022/07/10 03:14:18;;;;;;;5.77;3.37;;;;;;;;;;5061779;27;87815;-46
2022/07/10 03:16:46;;;;;;;11.37;3.33;;;;;;;;;;5062697;27;87038;-46
2022/07/10 03:19:15;;;;;;;5.93;3.33;;;;;;;;;;5058284;27;87011;-49
2022/07/10 03:21:44;;;;;;;6.13;4.00;;;;;;;;;;5062555;27;88146;-47
2022/07/10 03:24:14;;;;;;;8.13;3.77;;;;;;;;;;5066186;27;88997;-46
2022/07/10 03:26:42;;;;;;;5.43;3.60;;;;;;;;;;5059828;27;87299;-46
2022/07/10 03:29:10;;;;;;;6.43;3.90;;;;;;;;;;5067316;27;87100;-46
2022/07/10 03:31:38;;;;;;;5.47;3.57;;;;;;;;;;5060478;27;90180;-45
2022/07/10 03:34:07;;;;;;;7.03;4.13;;;;;;;;;;5061658;27;89697;-46
2022/07/10 03:36:35;;;;;;;6.23;3.43;;;;;;;;;;5063239;27;86991;-46
2022/07/10 03:39:03;;;;;;;6.33;3.40;;;;;;;;;;5062393;27;87039;-46
2022/07/10 03:41:33;;;;;;;5.07;3.40;;;;;;;;;;5062672;27;88254;-46
2022/07/10 03:44:01;;;;;;;9.03;4.63;;;;;;;;;;5062697;27;89082;-46
2022/07/10 03:46:30;;;;;;;7.13;3.93;;;;;;;;;;5075443;27;86973;-46
2022/07/10 03:48:58;;;;;;;5.17;3.37;;;;;;;;;;5084200;27;86272;-46
2022/07/10 03:51:26;;;;;;;6.47;4.00;;;;;;;;;;5083065;27;89121;-45
2022/07/10 03:53:55;;;;;;;8.37;4.30;;;;;;;;;;5083092;27;87977;-46
2022/07/10 03:59:11;;;;;;;7.43;3.70;;;;;;;;;;5083269;27;86880;-46
2022/07/10 04:01:39;;;;;;;7.00;3.70;;;;;;;;;;5082912;27;88225;-46
2022/07/10 04:04:07;;;;;;;6.20;3.70;;;;;;;;;;5082752;27;87716;-46
2022/07/10 04:06:38;;;;;;;8.63;4.43;;;;;;;;;;5063239;27;86928;-45
2022/07/10 04:09:07;;;;;;;8.13;4.40;;;;;;;;;;5062687;27;88078;-45
2022/07/10 04:11:35;;;;;;;6.77;3.97;;;;;;;;;;5061981;27;89313;-45
2022/07/10 04:14:03;;;;;;;7.53;3.40;;;;;;;;;;5055713;27;86671;-45
2022/07/10 04:16:33;;;;;;;6.80;4.27;;;;;;;;;;5061712;27;86831;-46
2022/07/10 04:19:01;;;;;;;5.77;3.53;;;;;;;;;;5060940;27;87092;-45
2022/07/10 04:21:29;;;;;;;8.40;3.93;;;;;;;;;;5054928;27;90720;-45
2022/07/10 04:23:58;;;;;;;5.60;3.50;;;;;;;;;;5041805;27;89929;-47
2022/07/10 04:26:32;;;;;;;6.60;4.23;;;;;;;;;;5057435;27;87002;-46
2022/07/10 04:29:00;;;;;;;5.53;3.40;;;;;;;;;;5061057;27;86994;-45
2022/07/10 04:31:28;;;;;;;22.43;4.67;;;;;;;;;;5042330;27;88151;-47
2022/07/10 04:33:58;;;;;;;6.13;3.53;;;;;;;;;;5044284;27;87793;-47
2022/07/10 04:36:26;;;;;;;7.43;3.90;;;;;;;;;;5061202;27;87149;-45
2022/07/10 04:38:55;;;;;;;5.60;3.80;;;;;;;;;;5060467;27;86553;-46
2022/07/10 04:41:23;;;;;;;9.30;4.90;;;;;;;;;;5060832;27;89244;-46
2022/07/10 04:43:51;;;;;;;8.00;4.57;;;;;;;;;;5061018;27;88842;-45
2022/07/10 04:46:20;;;;;;;5.43;4.00;;;;;;;;;;5060653;27;88007;-45
2022/07/10 04:48:48;;;;;;;7.03;4.90;;;;;;;;;;5042297;27;87026;-45
2022/07/10 04:51:17;;;;;;;8.90;5.33;;;;;;;;;;5060625;27;88920;-45
2022/07/10 04:53:46;;;;;;;7.07;4.83;;;;;;;;;;5060097;27;87111;-45
2022/07/10 04:56:14;;;;;;;6.90;4.30;;;;;;;;;;5063343;27;86990;-45
2022/07/10 04:58:42;;;;;;;9.80;4.67;;;;;;;;;;5081828;27;87137;-45
2022/07/10 05:01:19;;;;;;;7.03;4.97;;;;;;;;;;5069670;27;88139;-46
2022/07/10 05:03:47;;;;;;;9.57;5.40;;;;;;;;;;5061590;27;87737;-45
2022/07/10 05:06:15;;;;;;;8.20;4.63;;;;;;;;;;5061903;27;86871;-46
2022/07/10 05:08:45;;;;;;;7.53;4.73;;;;;;;;;;5060928;27;87047;-46
2022/07/10 05:11:13;;;;;;;10.80;5.47;;;;;;;;;;5059839;27;89408;-46
2022/07/10 05:13:45;;;;;;;9.60;4.93;;;;;;;;;;5060246;27;89928;-46
2022/07/10 05:16:13;;;;;;;10.53;5.37;;;;;;;;;;5061237;27;86828;-46
2022/07/10 05:18:47;;;;;;;7.93;4.90;;;;;;;;;;5060890;27;87001;-45
2022/07/10 05:21:16;;;;;;;7.17;3.77;;;;;;;;;;5060565;27;88146;-46
2022/07/10 05:23:46;;;;;;;8.03;4.57;;;;;;;;;;5060746;27;87826;-46
2022/07/10 05:26:14;;;;;;;7.87;5.23;;;;;;;;;;5061783;27;86994;-45
2022/07/10 05:28:42;;;;;;;8.30;4.47;;;;;;;;;;5061028;27;86310;-45
2022/07/10 05:31:11;;;;;;;10.67;5.13;;;;;;;;;;5061628;27;89114;-46
2022/07/10 05:33:40;;;;;;;10.10;5.30;;;;;;;;;;5061686;27;88608;-45
2022/07/10 05:36:08;;;;;;;8.87;4.60;;;;;;;;;;5060890;27;88681;-45
2022/07/10 05:38:37;;;;;;;14.23;6.13;;;;;;;;;;5063321;27;87029;-45
2022/07/10 05:41:07;;;;;;;8.03;4.70;;;;;;;;;;5064433;27;87847;-45
2022/07/10 05:43:35;;;;;;;9.77;5.43;;;;;;;;;;5063659;27;86940;-46
2022/07/10 05:46:05;;;;;;;9.13;5.37;;;;;;;;;;5064715;27;87007;-45
2022/07/10 05:48:34;;;;;;;7.50;5.20;;;;;;;;;;5062934;27;87052;-45
2022/07/10 05:51:02;;;;;;;8.10;5.07;;;;;;;;;;5062250;27;88091;-45
2022/07/10 05:53:50;;;;;;;8.87;5.40;;;;;;;;;;5063300;27;86432;-45
2022/07/10 05:56:20;;;;;;;8.40;5.13;;;;;;;;;;5063699;27;87116;-45
2022/07/10 05:58:49;;;;;;;9.00;5.40;;;;;;;;;;5062909;27;87035;-45
2022/07/10 06:01:18;;;;;;;10.37;5.27;;;;;;;;;;5062353;27;90026;-45
2022/07/10 06:03:46;;;;;;;9.17;5.07;;;;;;;;;;5054718;27;88647;-45
2022/07/10 06:06:15;;;;;;;9.73;5.33;;;;;;;;;;5060187;27;87671;-45
2022/07/10 06:08:44;;;;;;;12.47;5.37;;;;;;;;;;5061630;27;87325;-45
2022/07/10 06:11:12;;;;;;;8.57;4.97;;;;;;;;;;5063065;27;88158;-47
2022/07/10 06:13:42;;;;;;;10.10;4.83;;;;;;;;;;5062177;27;87885;-47
2022/07/10 06:16:10;;;;;;;11.37;5.77;;;;;;;;;;5063259;27;86991;-46
2022/07/10 06:18:38;;;;;;;12.60;5.50;;;;;;;;;;5063303;27;86066;-47
2022/07/10 06:21:07;;;;;;;10.87;5.07;;;;;;;;;;5063026;27;88766;-47
2022/07/10 06:23:36;;;;;;;9.73;4.63;;;;;;;;;;5062557;27;87974;-46
2022/07/10 06:26:04;;;;;;;10.53;5.30;;;;;;;;;;5062939;27;88499;-47
2022/07/10 06:28:32;;;;;;;9.13;5.70;;;;;;;;;;5064498;27;86952;-47
2022/07/10 06:31:02;;;;;;;10.43;5.37;;;;;;;;;;5064068;27;89301;-47
2022/07/10 06:33:32;;;;;;;9.87;5.47;;;;;;;;;;5062484;27;87812;-46
2022/07/10 06:36:00;;;;;;;9.83;5.50;;;;;;;;;;5061166;27;86994;-47
2022/07/10 06:38:28;;;;;;;8.30;5.20;;;;;;;;;;5063531;27;86984;-47
2022/07/10 06:40:56;;;;;;;9.20;5.23;;;;;;;;;;5063415;27;88387;-47
2022/07/10 06:43:25;;;;;;;12.20;5.77;;;;;;;;;;5064582;27;88912;-46
2022/07/10 06:45:53;;;;;;;11.73;7.13;;;;;;;;;;5063586;27;87867;-46
2022/07/10 06:48:23;;;;;;;10.03;5.10;;;;;;;;;;5064215;27;86937;-47
2022/07/10 06:50:51;;;;;;;16.17;5.80;;;;;;;;;;5062829;27;89138;-47
2022/07/10 06:53:23;;;;;;;10.37;5.90;;;;;;;;;;5063944;27;88923;-47
2022/07/10 06:55:52;;;;;;;12.27;6.30;;;;;;;;;;5063644;27;86770;-47
2022/07/10 06:58:20;;;;;;;11.93;5.50;;;;;;;;;;5062980;27;86919;-47
2022/07/10 07:00:49;;;;;;;8.07;5.73;;;;;;;;;;5060533;27;89185;-47
2022/07/10 07:03:17;;;;;;;8.27;6.00;;;;;;;;;;5052830;27;87952;-47
2022/07/10 07:05:47;;;;;;;10.80;5.63;;;;;;;;;;5062885;27;87053;-47
2022/07/10 07:08:16;;;;;;;9.03;6.23;;;;;;;;;;5064223;27;86255;-47
2022/07/10 07:10:45;;;;;;;9.80;6.43;;;;;;;;;;5063302;27;89182;-47
2022/07/10 07:13:13;;;;;;;12.33;6.00;;;;;;;;;;5063299;27;90186;-47
2022/07/10 07:15:48;;;;;;;9.90;6.17;;;;;;;;;;5063401;27;87973;-47
2022/07/10 07:18:16;;;;;;;8.57;5.97;;;;;;;;;;5063717;27;87018;-46
2022/07/10 07:23:32;;;;;;;8.60;5.90;;;;;;;;;;5063494;27;87831;-47
2022/07/10 07:26:00;;;;;;;10.87;6.07;;;;;;;;;;5063867;27;87148;-47
2022/07/10 07:28:28;;;;;;;9.50;6.43;;;;;;;;;;5063813;27;86938;-47
2022/07/10 07:30:59;;;;;;;11.53;6.97;;;;;;;;;;5063108;27;88224;-47
2022/07/10 07:33:27;;;;;;;14.63;7.50;;;;;;;;;;5063658;27;87992;-47
2022/07/10 07:35:57;;;;;;;9.13;6.03;;;;;;;;;;5062282;27;87336;-47
2022/07/10 07:38:26;;;;;;;11.80;6.40;;;;;;;;;;5063448;27;86939;-46
2022/07/10 07:40:54;;;;;;;11.50;7.13;;;;;;;;;;5061782;27;90134;-46
2022/07/10 07:43:22;;;;;;;7.93;6.13;;;;;;;;;;5060768;27;88999;-47
2022/07/10 07:45:50;;;;;;;12.07;7.70;;;;;;;;;;5063198;27;87059;-47
2022/07/10 07:48:19;;;;;;;11.73;6.60;;;;;;;;;;5062461;27;87292;-47
2022/07/10 07:50:47;;;;;;;11.37;7.10;;;;;;;;;;5062088;27;87058;-46
2022/07/10 07:53:17;;;;;;;10.50;6.83;;;;;;;;;;5063063;27;87930;-48
2022/07/10 07:55:45;;;;;;;11.03;7.57;;;;;;;;;;5063073;27;86704;-47
2022/07/10 07:58:13;;;;;;;9.93;6.70;;;;;;;;;;5062760;27;86307;-45
2022/07/10 08:00:42;;;;;;;12.13;6.90;;;;;;;;;;5061630;27;89115;-46
2022/07/10 08:03:11;;;;;;;11.60;7.40;;;;;;;;;;5063047;27;88904;-46
2022/07/10 08:05:39;;;;;;;10.87;6.27;;;;;;;;;;5062263;27;87863;-46
2022/07/10 08:08:08;;;;;;;7.77;5.70;;;;;;;;;;5063006;27;86753;-46
2022/07/10 08:10:38;;;;;;;9.80;6.53;;;;;;;;;;5062680;27;88258;-46
2022/07/10 08:13:12;;;;;;;9.63;5.77;;;;;;;;;;5061963;27;87745;-47
2022/07/10 08:15:41;;;;;;;12.10;6.37;;;;;;;;;;5062700;27;86947;-47
2022/07/10 08:18:09;;;;;;;7.07;5.40;;;;;;;;;;5062888;27;86966;-47
2022/07/10 08:20:37;;;;;;;7.67;5.80;;;;;;;;;;5061545;27;87008;-46
2022/07/10 08:23:06;;;;;;;9.97;5.77;;;;;;;;;;5062941;27;88848;-47
2022/07/10 08:25:35;;;;;;;6.57;5.20;;;;;;;;;;5062399;27;86903;-46
2022/07/10 08:28:05;;;;;;;7.63;5.00;;;;;;;;;;5062477;27;87078;-46
2022/07/10 08:30:34;;;;;;;7.30;5.37;;;;;;;;;;5060766;27;87983;-46
2022/07/10 08:33:02;;;;;;;7.47;5.77;;;;;;;;;;5061746;27;88709;-46
2022/07/10 08:35:31;;;;;;;7.90;5.30;;;;;;;;;;5062402;27;86851;-47
2022/07/10 08:37:59;;;;;;;8.63;5.30;;;;;;;;;;5062096;27;87029;-47
2022/07/10 08:40:28;;;;;;;7.33;4.97;;;;;;;;;;5061938;27;88248;-47
2022/07/10 08:42:56;;;;;;;8.20;5.80;;;;;;;;;;5062062;27;89124;-47
2022/07/10 08:45:26;;;;;;;7.63;5.23;;;;;;;;;;5062505;27;86904;-47
2022/07/10 08:47:54;;;;;;;7.90;5.10;;;;;;;;;;5062156;27;86317;-47
2022/07/10 08:50:23;;;;;;;8.83;5.80;;;;;;;;;;5059826;27;88382;-47
2022/07/10 08:52:55;;;;;;;9.90;6.63;;;;;;;;;;5059756;27;87870;-47
2022/07/10 08:55:25;;;;;;;14.30;7.30;;;;;;;;;;5059908;27;88376;-47
2022/07/10 08:57:54;;;;;;;15.30;7.83;;;;;;;;;;5060244;27;88551;-47
2022/07/10 09:00:22;;;;;;;14.83;7.03;;;;;;;;;;5058864;27;88299;-47
2022/07/10 09:02:52;;;;;;;10.70;6.37;;;;;;;;;;5060212;27;87968;-47
2022/07/10 09:05:21;;;;;;;12.33;6.83;;;;;;;;;;5060096;27;87121;-47
2022/07/10 09:07:49;;;;;;;13.30;7.53;;;;;;;;;;5057678;27;87001;-46
2022/07/10 09:10:17;;;;;;;9.43;5.93;;;;;;;;;;5060205;27;87892;-47
2022/07/10 09:12:52;;;;;;;11.53;7.60;;;;;;;;;;5060987;27;86688;-47
2022/07/10 09:15:21;;;;;;;9.57;7.00;;;;;;;;;;5063773;27;86860;-47
2022/07/10 09:17:54;;;;;;;11.57;6.43;;;;;;;;;;5063191;27;87237;-47
2022/07/10 09:20:30;;;;;;;10.27;6.10;;;;;;;;;;5062841;27;89398;-47
2022/07/10 09:22:59;;;;;;;8.70;6.47;;;;;;;;;;5063039;27;89335;-47
2022/07/10 09:25:34;;;;;;;7.10;5.33;;;;;;;;;;5064677;27;86957;-47
2022/07/10 09:28:06;;;;;;;8.73;6.23;;;;;;;;;;5064747;27;87024;-47
2022/07/10 09:30:35;;;;;;;10.73;6.90;;;;;;;;;;5062239;27;88213;-46
2022/07/10 09:33:18;;;;;;;8.20;6.20;;;;;;;;;;5063360;27;87815;-47
2022/07/10 09:36:08;;;;;;;6.70;5.47;;;;;;;;;;5060720;27;86904;-47
2022/07/10 09:38:56;;;;;;;9.90;6.37;;;;;;;;;;5062999;27;86731;-47
2022/07/10 09:41:26;;;;;;;9.87;5.87;;;;;;;;;;5061002;27;89134;-47
2022/07/10 09:43:55;;;;;;;9.97;5.90;;;;;;;;;;5063407;27;87843;-47
2022/07/10 09:46:24;;;;;;;7.27;5.57;;;;;;;;;;5060448;27;87846;-46
2022/07/10 09:49:06;;;;;;;10.33;6.27;;;;;;;;;;5063188;27;87113;-47
2022/07/10 09:51:35;;;;;;;11.47;5.90;;;;;;;;;;5060007;27;88262;-49
2022/07/10 09:54:04;;;;;;;9.27;5.60;;;;;;;;;;5057751;27;88054;-47
2022/07/10 09:56:34;;;;;;;10.60;6.23;;;;;;;;;;5062712;27;87518;-46
2022/07/10 09:59:03;;;;;;;15.83;7.87;;;;;;;;;;5060914;27;86971;-46
2022/07/10 10:01:31;;;;;;;16.73;9.33;;;;;;;;;;5062235;27;88128;-46
2022/07/10 10:04:01;;;;;;;17.00;9.03;;;;;;;;;;5062299;27;87784;-46
2022/07/10 10:06:31;;;;;;;13.37;7.40;;;;;;;;;;5062099;27;87031;-46
2022/07/10 10:09:01;;;;;;;26.97;9.93;;;;;;;;;;5062310;27;87092;-47
2022/07/10 10:11:29;;;;;;;16.77;9.33;;;;;;;;;;5063320;27;88012;-47
2022/07/10 10:13:57;;;;;;;13.13;7.80;;;;;;;;;;5062989;27;89369;-47
2022/07/10 10:16:26;;;;;;;16.30;7.30;;;;;;;;;;5064400;27;87905;-47
2022/07/10 10:21:41;;;;;;;11.80;7.77;;;;;;;;;;5061862;27;88120;-47
2022/07/10 10:24:10;;;;;;;14.70;7.33;;;;;;;;;;5061392;27;88475;-46
2022/07/10 10:26:38;;;;;;;13.83;6.33;;;;;;;;;;5063167;27;87133;-47
2022/07/10 10:29:06;;;;;;;13.80;6.60;;;;;;;;;;5063984;27;86509;-47
2022/07/10 10:31:35;;;;;;;12.00;6.20;;;;;;;;;;5062947;27;87826;-47
2022/07/10 10:34:03;;;;;;;11.73;6.30;;;;;;;;;;5063556;27;87797;-47
2022/07/10 10:36:49;;;;;;;15.20;7.57;;;;;;;;;;5060795;27;87801;-47
2022/07/10 10:39:19;;;;;;;11.40;5.23;;;;;;;;;;5063978;27;87962;-46
2022/07/10 10:41:48;;;;;;;10.00;4.97;;;;;;;;;;5064621;27;88247;-47
2022/07/10 10:44:23;;;;;;;9.40;3.87;;;;;;;;;;5063216;27;88911;-47
2022/07/10 10:46:56;;;;;;;5.53;3.57;;;;;;;;;;5058448;27;87417;-46
2022/07/10 10:49:25;;;;;;;5.23;2.90;;;;;;;;;;5063512;27;87045;-47
2022/07/10 10:52:01;;;;;;;8.53;3.20;;;;;;;;;;5062893;27;88135;-47
2022/07/10 10:54:31;;;;;;;5.57;2.87;;;;;;;;;;5063726;27;87904;-47
2022/07/10 10:57:12;;;;;;;7.57;2.80;;;;;;;;;;5063840;27;87122;-47
2022/07/10 10:59:47;;;;;;;4.27;3.00;;;;;;;;;;5063263;27;87059;-47
2022/07/10 11:02:26;;;;;;;4.00;2.10;;;;;;;;;;5061474;27;89095;-47
2022/07/10 11:04:54;;;;;;;5.00;1.63;;;;;;;;;;5042706;28;88922;-47
2022/07/10 11:07:38;;;;;;;2.90;2.17;;;;;;;;;;5043525;28;86925;-47
2022/07/10 11:10:24;;;;;;;3.60;2.20;;;;;;;;;;5054256;27;87119;-47
2022/07/10 11:13:00;;;;;;;2.53;1.47;;;;;;;;;;5062786;27;89097;-48
2022/07/10 11:15:30;;;;;;;1.90;1.47;;;;;;;;;;5063030;27;86987;-47
2022/07/10 11:17:58;;;;;;;2.57;1.10;;;;;;;;;;5062880;27;87168;-47
2022/07/10 11:20:26;;;;;;;2.33;2.00;;;;;;;;;;5053349;27;86214;-47
2022/07/10 11:23:00;;;;;;;4.43;1.87;;;;;;;;;;5052214;27;88968;-47
2022/07/10 11:25:42;;;;;;;3.07;1.90;;;;;;;;;;5063047;27;89171;-47
2022/07/10 11:28:12;;;;;;;2.80;1.57;;;;;;;;;;5062667;27;87999;-47
2022/07/10 11:30:47;;;;;;;2.97;1.63;;;;;;;;;;5062854;27;87038;-47
2022/07/10 11:33:15;;;;;;;2.47;1.77;;;;;;;;;;5062690;27;88328;-47
2022/07/10 11:35:46;;;;;;;2.67;1.50;;;;;;;;;;5061430;27;88877;-47
2022/07/10 11:38:14;;;;;;;3.40;1.67;;;;;;;;;;5062204;27;86998;-47
2022/07/10 11:40:42;;;;;;;2.37;1.57;;;;;;;;;;5062230;27;89048;-47
2022/07/10 11:43:16;;;;;;;4.03;1.43;;;;;;;;;;5061971;27;89163;-47
2022/07/10 11:45:45;;;;;;;1.87;1.53;;;;;;;;;;5062894;27;88832;-47
2022/07/10 11:48:19;;;;;;;2.63;1.37;;;;;;;;;;5062770;27;86922;-47
2022/07/10 11:50:47;;;;;;;1.60;1.03;;;;;;;;;;5062992;27;87024;-47
2022/07/10 11:53:15;;;;;;;2.73;1.23;;;;;;;;;;5061693;27;89070;-47
2022/07/10 11:55:44;;;;;;;3.10;1.63;;;;;;;;;;5061812;27;88737;-47
2022/07/10 11:58:17;;;;;;;1.33;1.00;;;;;;;;;;5061059;27;87037;-47
2022/07/10 12:00:46;;;;;;;1.93;1.00;;;;;;;;;;5061990;27;87859;-47
2022/07/10 12:03:18;;;;;;;1.37;1.13;;;;;;;;;;5061803;27;87988;-47
2022/07/10 12:05:46;;;;;;;2.20;1.20;;;;;;;;;;5061821;27;88935;-47
2022/07/10 12:08:14;;;;;;;0.80;0.80;;;;;;;;;;5062025;27;86841;-47
2022/07/10 12:10:43;;;;;;;2.50;1.60;;;;;;;;;;5061611;27;86366;-47
2022/07/10 12:13:12;;;;;;;1.87;1.27;;;;;;;;;;5061225;27;88150;-47
2022/07/10 12:15:42;;;;;;;1.50;1.23;;;;;;;;;;5060937;27;87434;-47
2022/07/10 12:18:12;;;;;;;2.80;1.30;;;;;;;;;;5058896;27;87997;-47
2022/07/10 12:20:45;;;;;;;2.33;1.30;;;;;;;;;;5061177;27;87117;-48
2022/07/10 12:23:15;;;;;;;1.33;1.23;;;;;;;;;;5062205;27;89101;-48
2022/07/10 12:25:43;;;;;;;3.90;1.53;;;;;;;;;;5060070;27;88805;-47
2022/07/10 12:28:11;;;;;;;2.60;1.57;;;;;;;;;;5060796;27;88086;-47
2022/07/10 12:30:42;;;;;;;3.50;1.50;;;;;;;;;;5058882;27;87552;-47
2022/07/10 12:33:10;;;;;;;1.10;1.00;;;;;;;;;;5061055;27;88099;-47
2022/07/10 12:35:57;;;;;;;2.63;1.37;;;;;;;;;;5057974;27;89001;-47
2022/07/10 12:38:26;;;;;;;2.67;1.50;;;;;;;;;;5053595;27;86897;-47
2022/07/10 12:41:07;;;;;;;1.93;1.47;;;;;;;;;;5060903;27;87049;-47
2022/07/10 12:43:36;;;;;;;2.97;1.50;;;;;;;;;;5060979;27;89232;-47
2022/07/10 12:46:14;;;;;;;1.60;1.20;;;;;;;;;;5061340;27;88795;-47
2022/07/10 12:48:44;;;;;;;1.47;1.23;;;;;;;;;;5059794;27;87014;-47
2022/07/10 12:51:25;;;;;;;0.97;0.90;;;;;;;;;;5060211;27;87051;-47
2022/07/10 12:53:53;;;;;;;1.40;1.27;;;;;;;;;;5060775;27;88133;-47
2022/07/10 12:56:43;;;;;;;1.87;1.37;;;;;;;;;;5058163;27;89276;-47
2022/07/10 12:59:13;;;;;;;1.73;1.10;;;;;;;;;;5055290;27;87111;-47
2022/07/10 13:01:44;;;;;;;2.50;1.10;;;;;;;;;;5060073;27;86609;-47
2022/07/10 13:04:13;;;;;;;1.87;1.00;;;;;;;;;;5061042;27;88932;-47
2022/07/10 13:06:41;;;;;;;5.30;1.30;;;;;;;;;;5060010;27;88109;-47
2022/07/10 13:09:22;;;;;;;2.20;1.30;;;;;;;;;;5056926;27;88121;-47
2022/07/10 13:11:51;;;;;;;2.43;1.20;;;;;;;;;;5060674;27;86979;-47
2022/07/10 13:14:20;;;;;;;1.93;0.73;;;;;;;;;;5057886;27;88150;-47
2022/07/10 13:16:49;;;;;;;1.80;1.00;;;;;;;;;;5059936;27;88951;-47
2022/07/10 13:19:19;;;;;;;1.60;1.17;;;;;;;;;;5060383;27;86996;-47
2022/07/10 13:21:47;;;;;;;2.40;1.13;;;;;;;;;;5060564;27;87477;-47
2022/07/10 13:24:15;;;;;;;1.77;1.27;;;;;;;;;;5060465;27;88327;-48
2022/07/10 13:26:44;;;;;;;3.33;1.03;;;;;;;;;;5059261;27;87919;-47
2022/07/10 13:29:12;;;;;;;1.47;1.10;;;;;;;;;;5060282;27;86980;-47
2022/07/10 13:31:40;;;;;;;1.67;1.10;;;;;;;;;;5063961;27;87137;-48
2022/07/10 13:34:10;;;;;;;1.53;1.30;;;;;;;;;;5057628;27;89012;-47
2022/07/10 13:36:38;;;;;;;1.50;1.13;;;;;;;;;;5061000;27;89989;-47
2022/07/10 13:39:07;;;;;;;3.60;1.13;;;;;;;;;;5060043;27;88135;-47
2022/07/10 13:41:35;;;;;;;1.50;1.40;;;;;;;;;;5060687;27;87415;-47
2022/07/10 13:44:03;;;;;;;1.30;1.00;;;;;;;;;;5061594;27;89321;-47
2022/07/10 13:46:32;;;;;;;3.40;1.27;;;;;;;;;;5059965;27;87825;-47
2022/07/10 13:49:01;;;;;;;4.37;1.43;;;;;;;;;;5061330;27;87354;-47
2022/07/10 13:51:30;;;;;;;3.97;1.67;;;;;;;;;;5061593;27;86319;-47
2022/07/10 13:53:59;;;;;;;2.33;1.40;;;;;;;;;;5061191;27;88213;-47
2022/07/10 13:56:27;;;;;;;2.50;1.20;;;;;;;;;;5060268;27;87845;-47
2022/07/10 13:58:55;;;;;;;3.27;1.80;;;;;;;;;;5062053;27;88110;-46
2022/07/10 14:01:24;;;;;;;1.97;1.07;;;;;;;;;;5063364;27;87110;-48
2022/07/10 14:03:52;;;;;;;1.53;1.10;;;;;;;;;;5063437;27;88793;-47
2022/07/10 14:06:21;;;;;;;1.67;1.10;;;;;;;;;;5063619;27;88418;-46
2022/07/10 14:08:51;;;;;;;3.30;1.30;;;;;;;;;;5063694;27;87109;-47
2022/07/10 14:11:19;;;;;;;1.03;0.93;;;;;;;;;;5063990;27;88458;-47
2022/07/10 14:13:47;;;;;;;2.20;1.40;;;;;;;;;;5064137;27;86857;-46
2022/07/10 14:16:15;;;;;;;5.13;1.40;;;;;;;;;;5064658;27;87798;-47
2022/07/10 14:18:44;;;;;;;1.70;1.27;;;;;;;;;;5064280;27;87048;-47
2022/07/10 14:21:13;;;;;;;2.60;1.33;;;;;;;;;;5047609;27;86918;-47
2022/07/10 14:23:43;;;;;;;2.47;1.50;;;;;;;;;;5043225;28;89175;-47
2022/07/10 14:26:13;;;;;;;1.93;1.73;;;;;;;;;;5059154;27;89678;-47
2022/07/10 14:28:42;;;;;;;2.37;1.77;;;;;;;;;;5063810;27;86844;-47
2022/07/10 14:31:11;;;;;;;2.67;1.60;;;;;;;;;;5063312;27;87000;-47
2022/07/10 14:33:39;;;;;;;3.07;1.70;;;;;;;;;;5063546;27;88028;-47
2022/07/10 14:36:08;;;;;;;2.10;1.70;;;;;;;;;;5060113;27;87913;-49
2022/07/10 14:38:37;;;;;;;2.90;1.80;;;;;;;;;;5063333;27;87068;-46
2022/07/10 14:41:06;;;;;;;1.90;1.50;;;;;;;;;;5061353;27;86378;-47
2022/07/10 14:43:36;;;;;;;2.30;1.90;;;;;;;;;;5063303;27;88932;-47
2022/07/10 14:46:05;;;;;;;3.53;1.70;;;;;;;;;;5063640;27;89057;-47
2022/07/10 14:48:35;;;;;;;4.97;2.33;;;;;;;;;;5063044;27;88067;-47
2022/07/10 14:51:04;;;;;;;3.07;2.13;;;;;;;;;;5063620;27;87163;-48
2022/07/10 14:53:35;;;;;;;3.77;2.20;;;;;;;;;;5062546;27;88082;-48
2022/07/10 14:56:03;;;;;;;4.80;2.23;;;;;;;;;;5060837;27;87744;-47
2022/07/10 14:58:32;;;;;;;2.93;1.87;;;;;;;;;;5062855;27;87432;-46
2022/07/10 15:01:21;;;;;;;3.43;2.17;;;;;;;;;;5062330;27;86901;-47
2022/07/10 15:03:50;;;;;;;3.63;1.67;;;;;;;;;;5063366;27;88104;-47